sensor_id;sensor_type;location;lat;lon;timestamp;P1;durP1;ratioP1;P2;durP2;ratioP2
14526;SDS011;7350;51.208;4.238;2022-07-29T00:02:05;5.30;;;3.30;;
14526;SDS011;7350;51.208;4.238;2022-07-29T00:04:33;4.03;;;2.70;;
14526;SDS011;7350;51.208;4.238;2022-07-29T00:07:02;7.88;;;2.67;;
14526;SDS011;7350;51.208;4.238;2022-07-29T00:09:29;4.28;;;2.53;;
14526;SDS011;7350;51.208;4.238;2022-07-29T00:11:58;9.10;;;3.03;;
14526;SDS011;7350;51.208;4.238;2022-07-29T00:14:26;5.57;;;2.80;;
14526;SDS011;7350;51.208;4.238;2022-07-29T00:16:54;4.03;;;2.58;;
14526;SDS011;7350;51.208;4.238;2022-07-29T00:19:22;4.93;;;2.60;;
14526;SDS011;7350;51.208;4.238;2022-07-29T00:21:49;4.20;;;2.40;;
14526;SDS011;7350;51.208;4.238;2022-07-29T00:24:17;5.07;;;2.75;;
14526;SDS011;7350;51.208;4.238;2022-07-29T00:26:44;5.15;;;2.60;;
14526;SDS011;7350;51.208;4.238;2022-07-29T00:29:11;3.53;;;2.00;;
14526;SDS011;7350;51.208;4.238;2022-07-29T00:31:38;5.45;;;2.50;;
14526;SDS011;7350;51.208;4.238;2022-07-29T00:34:07;6.65;;;2.40;;
14526;SDS011;7350;51.208;4.238;2022-07-29T00:36:54;6.32;;;2.50;;
14526;SDS011;7350;51.208;4.238;2022-07-29T00:39:22;3.95;;;2.85;;
14526;SDS011;7350;51.208;4.238;2022-07-29T00:41:49;5.50;;;2.97;;
14526;SDS011;7350;51.208;4.238;2022-07-29T00:44:16;6.35;;;2.75;;
14526;SDS011;7350;51.208;4.238;2022-07-29T00:46:43;5.85;;;2.75;;
14526;SDS011;7350;51.208;4.238;2022-07-29T00:49:10;5.10;;;2.47;;
14526;SDS011;7350;51.208;4.238;2022-07-29T00:51:37;6.10;;;2.33;;
14526;SDS011;7350;51.208;4.238;2022-07-29T00:54:04;3.58;;;2.25;;
14526;SDS011;7350;51.208;4.238;2022-07-29T00:56:33;3.63;;;2.20;;
14526;SDS011;7350;51.208;4.238;2022-07-29T00:59:00;4.20;;;2.42;;
14526;SDS011;7350;51.208;4.238;2022-07-29T01:01:27;3.55;;;2.08;;
14526;SDS011;7350;51.208;4.238;2022-07-29T01:03:54;4.40;;;2.15;;
14526;SDS011;7350;51.208;4.238;2022-07-29T01:06:21;3.75;;;1.92;;
14526;SDS011;7350;51.208;4.238;2022-07-29T01:08:49;3.13;;;2.45;;
14526;SDS011;7350;51.208;4.238;2022-07-29T01:11:17;3.22;;;1.88;;
14526;SDS011;7350;51.208;4.238;2022-07-29T01:13:46;3.90;;;1.95;;
14526;SDS011;7350;51.208;4.238;2022-07-29T01:16:15;4.15;;;2.17;;
14526;SDS011;7350;51.208;4.238;2022-07-29T01:18:48;3.05;;;1.70;;
14526;SDS011;7350;51.208;4.238;2022-07-29T01:21:23;3.70;;;1.60;;
14526;SDS011;7350;51.208;4.238;2022-07-29T01:24:20;3.60;;;1.65;;
14526;SDS011;7350;51.208;4.238;2022-07-29T01:27:09;4.68;;;1.98;;
14526;SDS011;7350;51.208;4.238;2022-07-29T01:29:51;3.85;;;1.83;;
14526;SDS011;7350;51.208;4.238;2022-07-29T01:32:22;2.58;;;1.73;;
14526;SDS011;7350;51.208;4.238;2022-07-29T01:34:53;2.92;;;1.60;;
14526;SDS011;7350;51.208;4.238;2022-07-29T01:37:24;3.20;;;1.70;;
14526;SDS011;7350;51.208;4.238;2022-07-29T01:39:55;2.20;;;1.60;;
14526;SDS011;7350;51.208;4.238;2022-07-29T01:42:26;3.20;;;2.08;;
14526;SDS011;7350;51.208;4.238;2022-07-29T01:44:59;3.00;;;1.45;;
14526;SDS011;7350;51.208;4.238;2022-07-29T01:47:33;3.35;;;1.77;;
14526;SDS011;7350;51.208;4.238;2022-07-29T01:50:05;3.80;;;1.70;;
14526;SDS011;7350;51.208;4.238;2022-07-29T01:52:43;2.60;;;1.30;;
14526;SDS011;7350;51.208;4.238;2022-07-29T01:55:16;4.85;;;1.75;;
14526;SDS011;7350;51.208;4.238;2022-07-29T01:57:46;3.90;;;1.70;;
14526;SDS011;7350;51.208;4.238;2022-07-29T02:00:16;4.93;;;2.00;;
14526;SDS011;7350;51.208;4.238;2022-07-29T02:02:44;2.83;;;2.13;;
14526;SDS011;7350;51.208;4.238;2022-07-29T02:05:14;3.58;;;2.03;;
14526;SDS011;7350;51.208;4.238;2022-07-29T02:07:43;3.95;;;2.00;;
14526;SDS011;7350;51.208;4.238;2022-07-29T02:10:12;5.15;;;2.38;;
14526;SDS011;7350;51.208;4.238;2022-07-29T02:12:42;3.38;;;2.00;;
14526;SDS011;7350;51.208;4.238;2022-07-29T02:15:10;5.13;;;2.05;;
14526;SDS011;7350;51.208;4.238;2022-07-29T02:17:41;3.60;;;2.15;;
14526;SDS011;7350;51.208;4.238;2022-07-29T02:20:11;5.05;;;2.03;;
14526;SDS011;7350;51.208;4.238;2022-07-29T02:22:39;4.53;;;2.40;;
14526;SDS011;7350;51.208;4.238;2022-07-29T02:25:08;4.20;;;2.10;;
14526;SDS011;7350;51.208;4.238;2022-07-29T02:27:36;5.22;;;2.15;;
14526;SDS011;7350;51.208;4.238;2022-07-29T02:30:06;3.63;;;1.98;;
14526;SDS011;7350;51.208;4.238;2022-07-29T02:32:35;4.97;;;2.30;;
14526;SDS011;7350;51.208;4.238;2022-07-29T02:35:08;4.18;;;2.33;;
14526;SDS011;7350;51.208;4.238;2022-07-29T02:37:36;3.50;;;2.17;;
14526;SDS011;7350;51.208;4.238;2022-07-29T02:40:04;5.95;;;2.47;;
14526;SDS011;7350;51.208;4.238;2022-07-29T02:42:35;2.88;;;2.28;;
14526;SDS011;7350;51.208;4.238;2022-07-29T02:45:04;5.25;;;2.25;;
14526;SDS011;7350;51.208;4.238;2022-07-29T02:47:34;7.43;;;2.45;;
14526;SDS011;7350;51.208;4.238;2022-07-29T02:50:04;4.00;;;2.45;;
14526;SDS011;7350;51.208;4.238;2022-07-29T02:52:37;4.00;;;2.28;;
14526;SDS011;7350;51.208;4.238;2022-07-29T02:55:11;3.90;;;2.42;;
14526;SDS011;7350;51.208;4.238;2022-07-29T02:57:42;5.05;;;2.20;;
14526;SDS011;7350;51.208;4.238;2022-07-29T03:00:13;5.43;;;2.42;;
14526;SDS011;7350;51.208;4.238;2022-07-29T03:02:42;2.75;;;2.28;;
14526;SDS011;7350;51.208;4.238;2022-07-29T03:05:15;5.20;;;2.22;;
14526;SDS011;7350;51.208;4.238;2022-07-29T03:07:45;4.15;;;2.35;;
14526;SDS011;7350;51.208;4.238;2022-07-29T03:10:14;6.43;;;2.53;;
14526;SDS011;7350;51.208;4.238;2022-07-29T03:12:41;2.83;;;2.20;;
14526;SDS011;7350;51.208;4.238;2022-07-29T03:15:10;2.88;;;2.17;;
14526;SDS011;7350;51.208;4.238;2022-07-29T03:17:37;4.60;;;2.92;;
14526;SDS011;7350;51.208;4.238;2022-07-29T03:20:06;4.13;;;2.22;;
14526;SDS011;7350;51.208;4.238;2022-07-29T03:22:39;6.53;;;2.42;;
14526;SDS011;7350;51.208;4.238;2022-07-29T03:25:09;4.50;;;2.15;;
14526;SDS011;7350;51.208;4.238;2022-07-29T03:27:36;4.35;;;2.25;;
14526;SDS011;7350;51.208;4.238;2022-07-29T03:30:03;2.95;;;2.42;;
14526;SDS011;7350;51.208;4.238;2022-07-29T03:32:31;4.15;;;2.05;;
14526;SDS011;7350;51.208;4.238;2022-07-29T03:34:58;3.88;;;2.33;;
14526;SDS011;7350;51.208;4.238;2022-07-29T03:37:25;6.80;;;2.88;;
14526;SDS011;7350;51.208;4.238;2022-07-29T03:39:54;3.75;;;2.38;;
14526;SDS011;7350;51.208;4.238;2022-07-29T03:42:23;4.32;;;2.35;;
14526;SDS011;7350;51.208;4.238;2022-07-29T03:44:52;4.63;;;2.40;;
14526;SDS011;7350;51.208;4.238;2022-07-29T03:47:22;4.97;;;2.60;;
14526;SDS011;7350;51.208;4.238;2022-07-29T03:49:54;4.43;;;2.80;;
14526;SDS011;7350;51.208;4.238;2022-07-29T03:52:24;4.60;;;2.85;;
14526;SDS011;7350;51.208;4.238;2022-07-29T03:54:51;5.50;;;2.85;;
14526;SDS011;7350;51.208;4.238;2022-07-29T03:57:20;4.93;;;2.60;;
14526;SDS011;7350;51.208;4.238;2022-07-29T03:59:50;3.83;;;2.40;;
14526;SDS011;7350;51.208;4.238;2022-07-29T04:02:18;4.75;;;2.60;;
14526;SDS011;7350;51.208;4.238;2022-07-29T04:04:46;4.38;;;2.58;;
14526;SDS011;7350;51.208;4.238;2022-07-29T04:07:13;3.50;;;2.58;;
14526;SDS011;7350;51.208;4.238;2022-07-29T04:09:41;3.80;;;2.72;;
14526;SDS011;7350;51.208;4.238;2022-07-29T04:12:10;4.13;;;2.55;;
14526;SDS011;7350;51.208;4.238;2022-07-29T04:14:37;3.92;;;2.60;;
14526;SDS011;7350;51.208;4.238;2022-07-29T04:17:04;11.63;;;2.70;;
14526;SDS011;7350;51.208;4.238;2022-07-29T04:19:31;5.00;;;2.60;;
14526;SDS011;7350;51.208;4.238;2022-07-29T04:21:59;5.45;;;2.95;;
14526;SDS011;7350;51.208;4.238;2022-07-29T04:24:26;3.70;;;2.90;;
14526;SDS011;7350;51.208;4.238;2022-07-29T04:26:53;6.28;;;3.03;;
14526;SDS011;7350;51.208;4.238;2022-07-29T04:29:22;4.00;;;2.88;;
14526;SDS011;7350;51.208;4.238;2022-07-29T04:31:49;3.97;;;2.58;;
14526;SDS011;7350;51.208;4.238;2022-07-29T04:34:16;5.85;;;3.20;;
14526;SDS011;7350;51.208;4.238;2022-07-29T04:36:43;4.32;;;2.72;;
14526;SDS011;7350;51.208;4.238;2022-07-29T04:39:10;6.95;;;2.90;;
14526;SDS011;7350;51.208;4.238;2022-07-29T04:41:37;4.97;;;2.85;;
14526;SDS011;7350;51.208;4.238;2022-07-29T04:44:04;4.40;;;3.20;;
14526;SDS011;7350;51.208;4.238;2022-07-29T04:46:32;4.13;;;2.80;;
14526;SDS011;7350;51.208;4.238;2022-07-29T04:48:59;5.13;;;3.70;;
14526;SDS011;7350;51.208;4.238;2022-07-29T04:51:26;5.20;;;3.55;;
14526;SDS011;7350;51.208;4.238;2022-07-29T04:53:53;5.43;;;3.92;;
14526;SDS011;7350;51.208;4.238;2022-07-29T04:56:20;7.55;;;4.13;;
14526;SDS011;7350;51.208;4.238;2022-07-29T04:58:47;7.28;;;4.18;;
14526;SDS011;7350;51.208;4.238;2022-07-29T05:01:14;4.68;;;4.15;;
14526;SDS011;7350;51.208;4.238;2022-07-29T05:03:42;6.00;;;4.15;;
14526;SDS011;7350;51.208;4.238;2022-07-29T05:06:10;5.32;;;3.85;;
14526;SDS011;7350;51.208;4.238;2022-07-29T05:08:37;8.05;;;3.90;;
14526;SDS011;7350;51.208;4.238;2022-07-29T05:11:04;7.00;;;4.30;;
14526;SDS011;7350;51.208;4.238;2022-07-29T05:13:31;7.80;;;4.30;;
14526;SDS011;7350;51.208;4.238;2022-07-29T05:15:58;5.35;;;4.40;;
14526;SDS011;7350;51.208;4.238;2022-07-29T05:18:25;5.28;;;4.30;;
14526;SDS011;7350;51.208;4.238;2022-07-29T05:20:54;6.60;;;4.60;;
14526;SDS011;7350;51.208;4.238;2022-07-29T05:23:22;8.80;;;4.38;;
14526;SDS011;7350;51.208;4.238;2022-07-29T05:25:49;7.30;;;4.60;;
14526;SDS011;7350;51.208;4.238;2022-07-29T05:28:16;5.68;;;3.60;;
14526;SDS011;7350;51.208;4.238;2022-07-29T05:30:43;7.13;;;3.95;;
14526;SDS011;7350;51.208;4.238;2022-07-29T05:33:10;5.38;;;4.00;;
14526;SDS011;7350;51.208;4.238;2022-07-29T05:35:37;5.65;;;3.78;;
14526;SDS011;7350;51.208;4.238;2022-07-29T05:38:06;4.97;;;3.72;;
14526;SDS011;7350;51.208;4.238;2022-07-29T05:40:33;5.47;;;3.92;;
14526;SDS011;7350;51.208;4.238;2022-07-29T05:43:00;7.95;;;3.65;;
14526;SDS011;7350;51.208;4.238;2022-07-29T05:45:27;5.13;;;3.42;;
14526;SDS011;7350;51.208;4.238;2022-07-29T05:47:53;8.45;;;4.25;;
14526;SDS011;7350;51.208;4.238;2022-07-29T05:50:20;7.40;;;3.90;;
14526;SDS011;7350;51.208;4.238;2022-07-29T05:52:47;5.78;;;4.18;;
14526;SDS011;7350;51.208;4.238;2022-07-29T05:55:16;4.75;;;4.18;;
14526;SDS011;7350;51.208;4.238;2022-07-29T05:57:43;8.18;;;4.07;;
14526;SDS011;7350;51.208;4.238;2022-07-29T06:00:11;8.00;;;4.40;;
14526;SDS011;7350;51.208;4.238;2022-07-29T06:02:38;7.93;;;4.13;;
14526;SDS011;7350;51.208;4.238;2022-07-29T06:05:06;5.15;;;4.22;;
14526;SDS011;7350;51.208;4.238;2022-07-29T06:07:33;5.57;;;4.13;;
14526;SDS011;7350;51.208;4.238;2022-07-29T06:10:00;7.10;;;3.90;;
14526;SDS011;7350;51.208;4.238;2022-07-29T06:12:29;8.85;;;4.45;;
14526;SDS011;7350;51.208;4.238;2022-07-29T06:14:56;6.93;;;3.92;;
14526;SDS011;7350;51.208;4.238;2022-07-29T06:17:23;6.95;;;3.58;;
14526;SDS011;7350;51.208;4.238;2022-07-29T06:19:50;5.93;;;3.95;;
14526;SDS011;7350;51.208;4.238;2022-07-29T06:22:17;4.78;;;3.45;;
14526;SDS011;7350;51.208;4.238;2022-07-29T06:24:44;8.10;;;3.85;;
14526;SDS011;7350;51.208;4.238;2022-07-29T06:27:11;4.70;;;4.20;;
14526;SDS011;7350;51.208;4.238;2022-07-29T06:29:40;7.15;;;3.70;;
14526;SDS011;7350;51.208;4.238;2022-07-29T06:32:07;7.18;;;4.07;;
14526;SDS011;7350;51.208;4.238;2022-07-29T06:34:34;7.05;;;4.22;;
14526;SDS011;7350;51.208;4.238;2022-07-29T06:37:05;6.00;;;3.78;;
14526;SDS011;7350;51.208;4.238;2022-07-29T06:39:33;12.35;;;5.07;;
14526;SDS011;7350;51.208;4.238;2022-07-29T06:42:00;7.28;;;4.63;;
14526;SDS011;7350;51.208;4.238;2022-07-29T06:44:27;5.88;;;4.80;;
14526;SDS011;7350;51.208;4.238;2022-07-29T06:46:56;7.82;;;4.53;;
14526;SDS011;7350;51.208;4.238;2022-07-29T06:49:23;7.28;;;4.80;;
14526;SDS011;7350;51.208;4.238;2022-07-29T06:51:51;6.95;;;4.85;;
14526;SDS011;7350;51.208;4.238;2022-07-29T06:54:18;8.20;;;4.47;;
14526;SDS011;7350;51.208;4.238;2022-07-29T06:56:45;7.68;;;4.63;;
14526;SDS011;7350;51.208;4.238;2022-07-29T06:59:12;6.18;;;4.85;;
14526;SDS011;7350;51.208;4.238;2022-07-29T07:01:40;7.93;;;4.72;;
14526;SDS011;7350;51.208;4.238;2022-07-29T07:04:10;6.65;;;5.38;;
14526;SDS011;7350;51.208;4.238;2022-07-29T07:06:38;7.18;;;5.45;;
14526;SDS011;7350;51.208;4.238;2022-07-29T07:09:05;8.90;;;5.90;;
14526;SDS011;7350;51.208;4.238;2022-07-29T07:11:32;6.57;;;5.78;;
14526;SDS011;7350;51.208;4.238;2022-07-29T07:13:59;8.23;;;6.68;;
14526;SDS011;7350;51.208;4.238;2022-07-29T07:16:26;9.10;;;7.35;;
14526;SDS011;7350;51.208;4.238;2022-07-29T07:18:53;7.55;;;6.32;;
14526;SDS011;7350;51.208;4.238;2022-07-29T07:21:21;10.25;;;6.45;;
14526;SDS011;7350;51.208;4.238;2022-07-29T07:23:48;10.05;;;6.57;;
14526;SDS011;7350;51.208;4.238;2022-07-29T07:26:15;7.63;;;6.05;;
14526;SDS011;7350;51.208;4.238;2022-07-29T07:28:42;8.38;;;7.28;;
14526;SDS011;7350;51.208;4.238;2022-07-29T07:31:09;7.45;;;6.22;;
14526;SDS011;7350;51.208;4.238;2022-07-29T07:33:36;11.20;;;6.57;;
14526;SDS011;7350;51.208;4.238;2022-07-29T07:36:03;9.90;;;6.13;;
14526;SDS011;7350;51.208;4.238;2022-07-29T07:38:32;7.80;;;6.05;;
14526;SDS011;7350;51.208;4.238;2022-07-29T07:40:59;7.50;;;6.15;;
14526;SDS011;7350;51.208;4.238;2022-07-29T07:43:26;7.43;;;6.18;;
14526;SDS011;7350;51.208;4.238;2022-07-29T07:45:53;7.68;;;5.93;;
14526;SDS011;7350;51.208;4.238;2022-07-29T07:48:20;7.07;;;5.57;;
14526;SDS011;7350;51.208;4.238;2022-07-29T07:50:47;7.35;;;5.50;;
14526;SDS011;7350;51.208;4.238;2022-07-29T07:53:15;8.05;;;5.30;;
14526;SDS011;7350;51.208;4.238;2022-07-29T07:55:44;8.15;;;5.80;;
14526;SDS011;7350;51.208;4.238;2022-07-29T07:58:11;8.55;;;6.18;;
14526;SDS011;7350;51.208;4.238;2022-07-29T08:00:38;7.72;;;6.20;;
14526;SDS011;7350;51.208;4.238;2022-07-29T08:03:05;8.95;;;6.03;;
14526;SDS011;7350;51.208;4.238;2022-07-29T08:05:32;8.00;;;6.15;;
14526;SDS011;7350;51.208;4.238;2022-07-29T08:07:59;10.05;;;6.78;;
14526;SDS011;7350;51.208;4.238;2022-07-29T08:10:26;7.57;;;6.72;;
14526;SDS011;7350;51.208;4.238;2022-07-29T08:13:11;9.48;;;7.13;;
14526;SDS011;7350;51.208;4.238;2022-07-29T08:15:39;11.20;;;7.65;;
14526;SDS011;7350;51.208;4.238;2022-07-29T08:18:08;8.95;;;7.97;;
14526;SDS011;7350;51.208;4.238;2022-07-29T08:20:35;9.52;;;7.32;;
14526;SDS011;7350;51.208;4.238;2022-07-29T08:23:03;8.50;;;6.65;;
14526;SDS011;7350;51.208;4.238;2022-07-29T08:25:31;11.10;;;6.25;;
14526;SDS011;7350;51.208;4.238;2022-07-29T08:27:58;9.73;;;5.75;;
14526;SDS011;7350;51.208;4.238;2022-07-29T08:30:27;9.68;;;6.50;;
14526;SDS011;7350;51.208;4.238;2022-07-29T08:32:54;11.65;;;6.43;;
14526;SDS011;7350;51.208;4.238;2022-07-29T08:35:22;8.13;;;5.63;;
14526;SDS011;7350;51.208;4.238;2022-07-29T08:37:50;8.73;;;6.68;;
14526;SDS011;7350;51.208;4.238;2022-07-29T08:40:17;11.10;;;6.30;;
14526;SDS011;7350;51.208;4.238;2022-07-29T08:42:45;8.65;;;4.68;;
14526;SDS011;7350;51.208;4.238;2022-07-29T08:45:12;7.65;;;4.95;;
14526;SDS011;7350;51.208;4.238;2022-07-29T08:47:43;6.60;;;4.70;;
14526;SDS011;7350;51.208;4.238;2022-07-29T08:50:11;5.47;;;4.47;;
14526;SDS011;7350;51.208;4.238;2022-07-29T08:52:38;9.23;;;3.80;;
14526;SDS011;7350;51.208;4.238;2022-07-29T08:55:07;6.93;;;4.10;;
14526;SDS011;7350;51.208;4.238;2022-07-29T08:57:37;6.57;;;3.75;;
14526;SDS011;7350;51.208;4.238;2022-07-29T09:00:05;5.40;;;3.97;;
14526;SDS011;7350;51.208;4.238;2022-07-29T09:02:38;7.72;;;4.30;;
14526;SDS011;7350;51.208;4.238;2022-07-29T09:05:08;7.53;;;4.15;;
14526;SDS011;7350;51.208;4.238;2022-07-29T09:07:36;4.95;;;3.50;;
14526;SDS011;7350;51.208;4.238;2022-07-29T09:10:05;7.78;;;3.95;;
14526;SDS011;7350;51.208;4.238;2022-07-29T09:12:33;5.30;;;4.22;;
14526;SDS011;7350;51.208;4.238;2022-07-29T09:15:00;9.55;;;4.78;;
14526;SDS011;7350;51.208;4.238;2022-07-29T09:17:39;5.72;;;4.25;;
14526;SDS011;7350;51.208;4.238;2022-07-29T09:20:12;6.88;;;4.60;;
14526;SDS011;7350;51.208;4.238;2022-07-29T09:22:40;6.00;;;3.70;;
14526;SDS011;7350;51.208;4.238;2022-07-29T09:25:06;7.78;;;4.30;;
14526;SDS011;7350;51.208;4.238;2022-07-29T09:27:34;7.75;;;4.72;;
14526;SDS011;7350;51.208;4.238;2022-07-29T09:30:02;8.68;;;4.50;;
14526;SDS011;7350;51.208;4.238;2022-07-29T09:32:31;5.03;;;4.25;;
14526;SDS011;7350;51.208;4.238;2022-07-29T09:35:16;5.88;;;3.90;;
14526;SDS011;7350;51.208;4.238;2022-07-29T09:37:45;8.20;;;4.38;;
14526;SDS011;7350;51.208;4.238;2022-07-29T09:40:13;6.63;;;4.22;;
14526;SDS011;7350;51.208;4.238;2022-07-29T09:42:42;4.72;;;3.45;;
14526;SDS011;7350;51.208;4.238;2022-07-29T09:45:09;7.03;;;3.45;;
14526;SDS011;7350;51.208;4.238;2022-07-29T09:47:40;5.60;;;3.25;;
14526;SDS011;7350;51.208;4.238;2022-07-29T09:50:10;7.68;;;3.33;;
14526;SDS011;7350;51.208;4.238;2022-07-29T09:52:45;6.65;;;2.90;;
14526;SDS011;7350;51.208;4.238;2022-07-29T09:55:13;6.85;;;3.63;;
14526;SDS011;7350;51.208;4.238;2022-07-29T09:57:41;5.65;;;3.55;;
14526;SDS011;7350;51.208;4.238;2022-07-29T10:00:10;8.68;;;4.50;;
14526;SDS011;7350;51.208;4.238;2022-07-29T10:02:39;8.20;;;3.90;;
14526;SDS011;7350;51.208;4.238;2022-07-29T10:05:15;6.03;;;4.47;;
14526;SDS011;7350;51.208;4.238;2022-07-29T10:07:46;7.18;;;4.68;;
14526;SDS011;7350;51.208;4.238;2022-07-29T10:10:23;7.03;;;4.55;;
14526;SDS011;7350;51.208;4.238;2022-07-29T10:12:52;8.43;;;4.13;;
14526;SDS011;7350;51.208;4.238;2022-07-29T10:15:21;7.68;;;4.70;;
14526;SDS011;7350;51.208;4.238;2022-07-29T10:17:49;6.47;;;3.85;;
14526;SDS011;7350;51.208;4.238;2022-07-29T10:20:17;8.10;;;4.60;;
14526;SDS011;7350;51.208;4.238;2022-07-29T10:22:46;5.78;;;4.05;;
14526;SDS011;7350;51.208;4.238;2022-07-29T10:25:13;6.07;;;3.90;;
14526;SDS011;7350;51.208;4.238;2022-07-29T10:27:41;8.10;;;4.35;;
14526;SDS011;7350;51.208;4.238;2022-07-29T10:30:09;4.88;;;4.25;;
14526;SDS011;7350;51.208;4.238;2022-07-29T10:32:51;5.82;;;4.28;;
14526;SDS011;7350;51.208;4.238;2022-07-29T10:35:39;5.35;;;3.72;;
14526;SDS011;7350;51.208;4.238;2022-07-29T10:41:16;7.30;;;5.13;;
14526;SDS011;7350;51.208;4.238;2022-07-29T10:43:58;6.15;;;4.57;;
14526;SDS011;7350;51.208;4.238;2022-07-29T10:46:28;5.57;;;4.05;;
14526;SDS011;7350;51.208;4.238;2022-07-29T10:49:06;6.45;;;4.80;;
14526;SDS011;7350;51.208;4.238;2022-07-29T10:51:59;5.25;;;4.20;;
14526;SDS011;7350;51.208;4.238;2022-07-29T10:57:16;8.13;;;4.15;;
14526;SDS011;7350;51.208;4.238;2022-07-29T10:59:50;7.35;;;3.92;;
14526;SDS011;7350;51.208;4.238;2022-07-29T11:02:43;8.40;;;5.47;;
14526;SDS011;7350;51.208;4.238;2022-07-29T11:05:16;7.53;;;4.72;;
14526;SDS011;7350;51.208;4.238;2022-07-29T11:10:51;5.30;;;3.30;;
14526;SDS011;7350;51.208;4.238;2022-07-29T11:16:13;7.10;;;4.80;;
14526;SDS011;7350;51.208;4.238;2022-07-29T11:21:44;5.15;;;3.90;;
14526;SDS011;7350;51.208;4.238;2022-07-29T11:24:15;8.93;;;2.90;;
14526;SDS011;7350;51.208;4.238;2022-07-29T11:26:43;5.13;;;3.05;;
14526;SDS011;7350;51.208;4.238;2022-07-29T11:29:18;6.30;;;3.10;;
14526;SDS011;7350;51.208;4.238;2022-07-29T11:31:48;5.13;;;3.10;;
14526;SDS011;7350;51.208;4.238;2022-07-29T11:34:20;6.13;;;2.30;;
14526;SDS011;7350;51.208;4.238;2022-07-29T11:39:44;5.15;;;2.88;;
14526;SDS011;7350;51.208;4.238;2022-07-29T11:45:07;4.53;;;2.42;;
14526;SDS011;7350;51.208;4.238;2022-07-29T11:47:37;6.20;;;2.90;;
14526;SDS011;7350;51.208;4.238;2022-07-29T11:50:06;6.05;;;3.28;;
14526;SDS011;7350;51.208;4.238;2022-07-29T11:52:34;6.75;;;2.58;;
14526;SDS011;7350;51.208;4.238;2022-07-29T11:55:08;4.65;;;2.55;;
14526;SDS011;7350;51.208;4.238;2022-07-29T11:57:37;4.18;;;2.65;;
14526;SDS011;7350;51.208;4.238;2022-07-29T12:00:20;5.93;;;2.85;;
14526;SDS011;7350;51.208;4.238;2022-07-29T12:02:48;4.95;;;2.50;;
14526;SDS011;7350;51.208;4.238;2022-07-29T12:05:16;6.25;;;2.50;;
14526;SDS011;7350;51.208;4.238;2022-07-29T12:07:44;6.72;;;2.78;;
14526;SDS011;7350;51.208;4.238;2022-07-29T12:10:11;4.00;;;2.70;;
14526;SDS011;7350;51.208;4.238;2022-07-29T12:12:38;5.82;;;2.58;;
14526;SDS011;7350;51.208;4.238;2022-07-29T12:15:14;5.53;;;2.53;;
14526;SDS011;7350;51.208;4.238;2022-07-29T12:17:43;5.43;;;2.72;;
14526;SDS011;7350;51.208;4.238;2022-07-29T12:20:10;4.63;;;2.80;;
14526;SDS011;7350;51.208;4.238;2022-07-29T12:22:38;5.55;;;2.60;;
14526;SDS011;7350;51.208;4.238;2022-07-29T12:25:09;8.23;;;2.78;;
14526;SDS011;7350;51.208;4.238;2022-07-29T12:27:40;7.05;;;3.00;;
14526;SDS011;7350;51.208;4.238;2022-07-29T12:30:08;4.05;;;2.53;;
14526;SDS011;7350;51.208;4.238;2022-07-29T12:32:38;6.78;;;2.90;;
14526;SDS011;7350;51.208;4.238;2022-07-29T12:35:07;4.05;;;2.70;;
14526;SDS011;7350;51.208;4.238;2022-07-29T12:37:36;5.13;;;2.78;;
14526;SDS011;7350;51.208;4.238;2022-07-29T12:40:05;3.95;;;2.67;;
14526;SDS011;7350;51.208;4.238;2022-07-29T12:42:34;5.85;;;2.55;;
14526;SDS011;7350;51.208;4.238;2022-07-29T12:45:02;5.30;;;2.50;;
14526;SDS011;7350;51.208;4.238;2022-07-29T12:47:30;4.30;;;2.65;;
14526;SDS011;7350;51.208;4.238;2022-07-29T12:50:08;4.18;;;2.60;;
14526;SDS011;7350;51.208;4.238;2022-07-29T12:52:37;6.95;;;3.35;;
14526;SDS011;7350;51.208;4.238;2022-07-29T12:55:04;3.67;;;2.45;;
14526;SDS011;7350;51.208;4.238;2022-07-29T12:57:31;4.72;;;2.75;;
14526;SDS011;7350;51.208;4.238;2022-07-29T13:00:11;4.65;;;3.05;;
14526;SDS011;7350;51.208;4.238;2022-07-29T13:02:39;6.03;;;2.90;;
14526;SDS011;7350;51.208;4.238;2022-07-29T13:05:10;3.22;;;2.63;;
14526;SDS011;7350;51.208;4.238;2022-07-29T13:07:37;3.85;;;2.55;;
14526;SDS011;7350;51.208;4.238;2022-07-29T13:10:12;5.68;;;2.90;;
14526;SDS011;7350;51.208;4.238;2022-07-29T13:15:29;5.20;;;2.67;;
14526;SDS011;7350;51.208;4.238;2022-07-29T13:17:57;5.55;;;2.90;;
14526;SDS011;7350;51.208;4.238;2022-07-29T13:20:26;6.30;;;3.88;;
14526;SDS011;7350;51.208;4.238;2022-07-29T13:22:56;5.13;;;2.72;;
14526;SDS011;7350;51.208;4.238;2022-07-29T13:25:24;4.95;;;2.67;;
14526;SDS011;7350;51.208;4.238;2022-07-29T13:27:52;6.13;;;3.05;;
14526;SDS011;7350;51.208;4.238;2022-07-29T13:30:20;5.43;;;2.60;;
14526;SDS011;7350;51.208;4.238;2022-07-29T13:32:48;5.38;;;3.50;;
14526;SDS011;7350;51.208;4.238;2022-07-29T13:35:15;5.10;;;3.42;;
14526;SDS011;7350;51.208;4.238;2022-07-29T13:37:44;3.80;;;2.67;;
14526;SDS011;7350;51.208;4.238;2022-07-29T13:40:12;7.55;;;3.20;;
14526;SDS011;7350;51.208;4.238;2022-07-29T13:42:39;6.32;;;3.22;;
14526;SDS011;7350;51.208;4.238;2022-07-29T13:45:06;4.75;;;3.65;;
14526;SDS011;7350;51.208;4.238;2022-07-29T13:47:34;5.32;;;3.15;;
14526;SDS011;7350;51.208;4.238;2022-07-29T13:50:02;8.52;;;3.95;;
14526;SDS011;7350;51.208;4.238;2022-07-29T13:52:30;5.88;;;3.50;;
14526;SDS011;7350;51.208;4.238;2022-07-29T13:54:58;4.35;;;3.17;;
14526;SDS011;7350;51.208;4.238;2022-07-29T13:57:26;4.85;;;3.28;;
14526;SDS011;7350;51.208;4.238;2022-07-29T13:59:54;3.72;;;3.00;;
14526;SDS011;7350;51.208;4.238;2022-07-29T14:02:22;6.93;;;2.92;;
14526;SDS011;7350;51.208;4.238;2022-07-29T14:04:49;7.00;;;3.70;;
14526;SDS011;7350;51.208;4.238;2022-07-29T14:07:17;3.92;;;3.28;;
14526;SDS011;7350;51.208;4.238;2022-07-29T14:09:44;4.45;;;2.90;;
14526;SDS011;7350;51.208;4.238;2022-07-29T14:12:12;5.90;;;3.83;;
14526;SDS011;7350;51.208;4.238;2022-07-29T14:14:39;5.85;;;3.50;;
14526;SDS011;7350;51.208;4.238;2022-07-29T14:17:06;5.80;;;3.50;;
14526;SDS011;7350;51.208;4.238;2022-07-29T14:19:34;4.55;;;3.00;;
14526;SDS011;7350;51.208;4.238;2022-07-29T14:22:03;3.72;;;2.97;;
14526;SDS011;7350;51.208;4.238;2022-07-29T14:24:30;3.78;;;2.58;;
14526;SDS011;7350;51.208;4.238;2022-07-29T14:26:58;5.68;;;4.47;;
14526;SDS011;7350;51.208;4.238;2022-07-29T14:29:26;5.65;;;2.63;;
14526;SDS011;7350;51.208;4.238;2022-07-29T14:31:53;6.32;;;2.58;;
14526;SDS011;7350;51.208;4.238;2022-07-29T14:34:20;3.65;;;2.95;;
14526;SDS011;7350;51.208;4.238;2022-07-29T14:36:47;7.75;;;3.78;;
14526;SDS011;7350;51.208;4.238;2022-07-29T14:39:14;6.57;;;2.85;;
14526;SDS011;7350;51.208;4.238;2022-07-29T14:41:42;4.88;;;3.28;;
14526;SDS011;7350;51.208;4.238;2022-07-29T14:44:09;4.72;;;3.30;;
14526;SDS011;7350;51.208;4.238;2022-07-29T14:46:37;8.68;;;3.47;;
14526;SDS011;7350;51.208;4.238;2022-07-29T14:49:04;5.57;;;3.53;;
14526;SDS011;7350;51.208;4.238;2022-07-29T14:51:31;8.20;;;3.03;;
14526;SDS011;7350;51.208;4.238;2022-07-29T14:53:58;4.40;;;2.90;;
14526;SDS011;7350;51.208;4.238;2022-07-29T14:56:26;3.58;;;3.00;;
14526;SDS011;7350;51.208;4.238;2022-07-29T14:58:54;5.00;;;3.03;;
14526;SDS011;7350;51.208;4.238;2022-07-29T15:01:22;3.97;;;3.13;;
14526;SDS011;7350;51.208;4.238;2022-07-29T15:03:50;5.57;;;2.95;;
14526;SDS011;7350;51.208;4.238;2022-07-29T15:06:18;5.75;;;3.35;;
14526;SDS011;7350;51.208;4.238;2022-07-29T15:08:45;5.63;;;3.03;;
14526;SDS011;7350;51.208;4.238;2022-07-29T15:11:12;7.82;;;3.30;;
14526;SDS011;7350;51.208;4.238;2022-07-29T15:13:39;8.57;;;4.03;;
14526;SDS011;7350;51.208;4.238;2022-07-29T15:16:05;4.53;;;3.25;;
14526;SDS011;7350;51.208;4.238;2022-07-29T15:18:33;5.40;;;3.15;;
14526;SDS011;7350;51.208;4.238;2022-07-29T15:21:01;4.00;;;2.75;;
14526;SDS011;7350;51.208;4.238;2022-07-29T15:23:28;5.35;;;3.20;;
14526;SDS011;7350;51.208;4.238;2022-07-29T15:25:55;7.68;;;3.10;;
14526;SDS011;7350;51.208;4.238;2022-07-29T15:28:22;7.38;;;2.70;;
14526;SDS011;7350;51.208;4.238;2022-07-29T15:30:49;5.53;;;2.90;;
14526;SDS011;7350;51.208;4.238;2022-07-29T15:33:16;4.38;;;2.92;;
14526;SDS011;7350;51.208;4.238;2022-07-29T15:35:43;3.58;;;2.50;;